首页
METAR-TAF:

METAR-TAF

机场 :

Pangborn Memorial Airport

韦纳奇, 华盛顿, 美国

纬度: 47-23-56N, 经度: 120-12-25W, 海拔: 381米

当前天气观测

该预报发布于33分钟前的08:08 UTC
风速4节,风向西南
温度 -2°C
湿度 86%
气压 1013 hPa
能見度: 16.1公里
阴天层高于1500英尺

METAR: KEAT 170808Z AUTO 23004KT 10SM OVC015 M02/M04 A2990 RMK AO2 T10221044

时间: 00:41 (08:41 UTC)

预报

该预报发布于3小时和4分钟前的05:37 UTC
预报有效从17日的 06点(UTC)到 18日的 06点(UTC)
风速节,风向
能見度: 10公里
阴天层高于1300英尺
从 17日的 1200点(UTC)
风速2节,风向西北
能見度: 10公里
散云层高于700英尺
阴天层高于1000英尺
附近有阵雨
从 17日的 1800点(UTC)
风速3节,风向西转西北
能見度: 10公里
散云层高于1500英尺
阴天层高于5000英尺
附近有阵雨
从 17日的 2200点(UTC)
风速3节,风向东转东南
能見度: 10公里
多云层高于1500英尺
阴天层高于4000英尺
附近有阵雨
从 18日的 0100点(UTC)
风速2节,风向多变
能見度: 10公里
散云层高于1500英尺
多云层高于5000英尺
阴天层高于7000英尺

TAF: KEAT 170537Z 1706/1806 00000KT P6SM OVC013 FM171200 31002KT P6SM VCSH SCT007 OVC010 FM171800 29003KT P6SM VCSH SCT015 OVC050 FM172200 11003KT P6SM VCSH BKN015 OVC040 FM180100 VRB02KT P6SM SCT015 BKN050 OVC070

超过4000个机场的气象观测和天气预报(METAR&TAF报告)。

可查询的气象台以黄色和红色小点在地图上表示。

将鼠标移到小点上方,可查看气象台名称。

然后点击查看天气观测和预报。

如需切换地图:点击带黑十字的绿色按钮放大地图;点击带横线的绿色按钮缩小地图;或者点击绿色箭头查看邻近地区的地图。


METAR-TAF: